Terminal Aerodrome Forecast
Issued by NWS Los Angeles, CA

Home | Current Version | Previous Version | Text Only | Print | Product List | Glossary On
Versions: 1 2 3 4 5 6 7 8 9 10 11 12 13 14 15 16 17 18 19 20 21 22 23 24 25 26 27 28 29
000
FTUS46 KLOX 261131
TAFSMX
TAF
KSMX 261131Z 2612/2712 VRB03KT 6SM BR OVC005
     FM261600 31006KT P6SM BKN010
     FM261900 31010KT P6SM SCT250
     FM270300 31006KT P6SM BKN010
     FM270700 VRB03KT P6SM OVC012=

USA.gov is the U.S. government's official web portal to all federal, state and local government web resources and services.